sensor_id;sensor_type;location;lat;lon;timestamp;P1;durP1;ratioP1;P2;durP2;ratioP2
65759;SDS011;52496;51.082;5.066;2022-07-23T00:00:07;11.95;;;6.45;;
65759;SDS011;52496;51.082;5.066;2022-07-23T00:02:38;12.85;;;6.63;;
65759;SDS011;52496;51.082;5.066;2022-07-23T00:05:09;12.20;;;6.15;;
65759;SDS011;52496;51.082;5.066;2022-07-23T00:07:40;11.52;;;5.97;;
65759;SDS011;52496;51.082;5.066;2022-07-23T00:10:10;11.23;;;6.65;;
65759;SDS011;52496;51.082;5.066;2022-07-23T00:12:41;10.35;;;6.38;;
65759;SDS011;52496;51.082;5.066;2022-07-23T00:15:11;10.90;;;5.97;;
65759;SDS011;52496;51.082;5.066;2022-07-23T00:17:42;11.50;;;6.22;;
65759;SDS011;52496;51.082;5.066;2022-07-23T00:20:13;11.98;;;6.43;;
65759;SDS011;52496;51.082;5.066;2022-07-23T00:22:50;11.40;;;6.82;;
65759;SDS011;52496;51.082;5.066;2022-07-23T00:25:22;9.55;;;6.13;;
65759;SDS011;52496;51.082;5.066;2022-07-23T00:27:53;12.43;;;6.53;;
65759;SDS011;52496;51.082;5.066;2022-07-23T00:30:24;10.68;;;5.78;;
65759;SDS011;52496;51.082;5.066;2022-07-23T00:32:55;10.68;;;5.95;;
65759;SDS011;52496;51.082;5.066;2022-07-23T00:35:32;10.73;;;6.65;;
65759;SDS011;52496;51.082;5.066;2022-07-23T00:38:04;15.02;;;7.57;;
65759;SDS011;52496;51.082;5.066;2022-07-23T00:40:35;10.85;;;6.15;;
65759;SDS011;52496;51.082;5.066;2022-07-23T00:43:06;13.63;;;6.45;;
65759;SDS011;52496;51.082;5.066;2022-07-23T00:45:37;11.02;;;5.82;;
65759;SDS011;52496;51.082;5.066;2022-07-23T00:48:08;12.75;;;6.75;;
65759;SDS011;52496;51.082;5.066;2022-07-23T00:50:38;11.95;;;6.85;;
65759;SDS011;52496;51.082;5.066;2022-07-23T00:53:09;12.68;;;6.57;;
65759;SDS011;52496;51.082;5.066;2022-07-23T00:55:40;12.90;;;6.82;;
65759;SDS011;52496;51.082;5.066;2022-07-23T00:58:11;10.25;;;6.07;;
65759;SDS011;52496;51.082;5.066;2022-07-23T01:00:42;9.50;;;5.82;;
65759;SDS011;52496;51.082;5.066;2022-07-23T01:03:13;15.45;;;6.82;;
65759;SDS011;52496;51.082;5.066;2022-07-23T01:05:43;10.52;;;6.75;;
65759;SDS011;52496;51.082;5.066;2022-07-23T01:08:14;13.25;;;6.75;;
65759;SDS011;52496;51.082;5.066;2022-07-23T01:10:46;12.25;;;6.85;;
65759;SDS011;52496;51.082;5.066;2022-07-23T01:13:18;12.85;;;6.93;;
65759;SDS011;52496;51.082;5.066;2022-07-23T01:15:49;11.35;;;7.22;;
65759;SDS011;52496;51.082;5.066;2022-07-23T01:18:20;10.98;;;6.43;;
65759;SDS011;52496;51.082;5.066;2022-07-23T01:20:51;12.35;;;7.32;;
65759;SDS011;52496;51.082;5.066;2022-07-23T01:23:21;12.60;;;7.50;;
65759;SDS011;52496;51.082;5.066;2022-07-23T01:25:52;11.65;;;6.47;;
65759;SDS011;52496;51.082;5.066;2022-07-23T01:28:23;10.90;;;6.13;;
65759;SDS011;52496;51.082;5.066;2022-07-23T01:30:54;11.82;;;6.45;;
65759;SDS011;52496;51.082;5.066;2022-07-23T01:33:24;14.57;;;7.43;;
65759;SDS011;52496;51.082;5.066;2022-07-23T01:35:55;12.63;;;6.95;;
65759;SDS011;52496;51.082;5.066;2022-07-23T01:38:25;11.77;;;6.32;;
65759;SDS011;52496;51.082;5.066;2022-07-23T01:40:56;9.13;;;5.40;;
65759;SDS011;52496;51.082;5.066;2022-07-23T01:43:26;9.38;;;6.18;;
65759;SDS011;52496;51.082;5.066;2022-07-23T01:45:57;10.95;;;6.45;;
65759;SDS011;52496;51.082;5.066;2022-07-23T01:48:27;11.57;;;7.00;;
65759;SDS011;52496;51.082;5.066;2022-07-23T01:50:58;11.35;;;6.47;;
65759;SDS011;52496;51.082;5.066;2022-07-23T01:53:28;9.65;;;5.88;;
65759;SDS011;52496;51.082;5.066;2022-07-23T01:56:01;10.38;;;6.22;;
65759;SDS011;52496;51.082;5.066;2022-07-23T01:58:33;11.77;;;6.85;;
65759;SDS011;52496;51.082;5.066;2022-07-23T02:01:03;12.18;;;7.22;;
65759;SDS011;52496;51.082;5.066;2022-07-23T02:03:35;14.60;;;8.00;;
65759;SDS011;52496;51.082;5.066;2022-07-23T02:06:06;11.05;;;6.38;;
65759;SDS011;52496;51.082;5.066;2022-07-23T02:08:36;9.50;;;6.18;;
65759;SDS011;52496;51.082;5.066;2022-07-23T02:11:07;10.30;;;6.22;;
65759;SDS011;52496;51.082;5.066;2022-07-23T02:13:37;14.18;;;7.10;;
65759;SDS011;52496;51.082;5.066;2022-07-23T02:16:07;14.65;;;6.43;;
65759;SDS011;52496;51.082;5.066;2022-07-23T02:18:38;11.13;;;6.97;;
65759;SDS011;52496;51.082;5.066;2022-07-23T02:21:08;11.60;;;6.45;;
65759;SDS011;52496;51.082;5.066;2022-07-23T02:23:39;10.73;;;7.00;;
65759;SDS011;52496;51.082;5.066;2022-07-23T02:26:09;11.57;;;7.03;;
65759;SDS011;52496;51.082;5.066;2022-07-23T02:28:40;11.35;;;6.70;;
65759;SDS011;52496;51.082;5.066;2022-07-23T02:31:11;12.60;;;6.97;;
65759;SDS011;52496;51.082;5.066;2022-07-23T02:33:41;13.93;;;7.00;;
65759;SDS011;52496;51.082;5.066;2022-07-23T02:36:11;15.07;;;7.65;;
65759;SDS011;52496;51.082;5.066;2022-07-23T02:38:42;11.20;;;6.88;;
65759;SDS011;52496;51.082;5.066;2022-07-23T02:41:12;12.25;;;7.00;;
65759;SDS011;52496;51.082;5.066;2022-07-23T02:43:43;11.80;;;7.00;;
65759;SDS011;52496;51.082;5.066;2022-07-23T02:46:13;11.60;;;6.22;;
65759;SDS011;52496;51.082;5.066;2022-07-23T02:48:44;10.98;;;6.63;;
65759;SDS011;52496;51.082;5.066;2022-07-23T02:51:14;12.35;;;6.88;;
65759;SDS011;52496;51.082;5.066;2022-07-23T02:53:45;12.52;;;6.63;;
65759;SDS011;52496;51.082;5.066;2022-07-23T02:56:15;15.13;;;7.22;;
65759;SDS011;52496;51.082;5.066;2022-07-23T02:58:46;15.30;;;7.75;;
65759;SDS011;52496;51.082;5.066;2022-07-23T03:01:16;10.80;;;7.50;;
65759;SDS011;52496;51.082;5.066;2022-07-23T03:03:47;12.23;;;7.93;;
65759;SDS011;52496;51.082;5.066;2022-07-23T03:06:17;13.82;;;7.72;;
65759;SDS011;52496;51.082;5.066;2022-07-23T03:08:48;10.85;;;7.40;;
65759;SDS011;52496;51.082;5.066;2022-07-23T03:11:19;11.77;;;6.95;;
65759;SDS011;52496;51.082;5.066;2022-07-23T03:13:49;13.73;;;7.80;;
65759;SDS011;52496;51.082;5.066;2022-07-23T03:16:20;14.00;;;8.02;;
65759;SDS011;52496;51.082;5.066;2022-07-23T03:18:50;14.38;;;8.10;;
65759;SDS011;52496;51.082;5.066;2022-07-23T03:21:21;13.38;;;7.82;;
65759;SDS011;52496;51.082;5.066;2022-07-23T03:23:51;12.27;;;6.93;;
65759;SDS011;52496;51.082;5.066;2022-07-23T03:26:21;12.48;;;7.22;;
65759;SDS011;52496;51.082;5.066;2022-07-23T03:28:55;13.32;;;8.00;;
65759;SDS011;52496;51.082;5.066;2022-07-23T03:31:25;12.77;;;7.15;;
65759;SDS011;52496;51.082;5.066;2022-07-23T03:33:56;12.05;;;7.03;;
65759;SDS011;52496;51.082;5.066;2022-07-23T03:36:26;12.68;;;7.00;;
65759;SDS011;52496;51.082;5.066;2022-07-23T03:38:57;10.45;;;7.00;;
65759;SDS011;52496;51.082;5.066;2022-07-23T03:41:27;13.80;;;7.13;;
65759;SDS011;52496;51.082;5.066;2022-07-23T03:43:58;13.27;;;7.03;;
65759;SDS011;52496;51.082;5.066;2022-07-23T03:46:28;11.07;;;6.90;;
65759;SDS011;52496;51.082;5.066;2022-07-23T03:48:59;13.82;;;7.03;;
65759;SDS011;52496;51.082;5.066;2022-07-23T03:51:29;10.93;;;7.07;;
65759;SDS011;52496;51.082;5.066;2022-07-23T03:54:00;15.32;;;7.65;;
65759;SDS011;52496;51.082;5.066;2022-07-23T03:56:30;17.05;;;9.07;;
65759;SDS011;52496;51.082;5.066;2022-07-23T03:59:01;11.57;;;7.35;;
65759;SDS011;52496;51.082;5.066;2022-07-23T04:01:31;12.85;;;7.72;;
65759;SDS011;52496;51.082;5.066;2022-07-23T04:04:02;10.48;;;6.90;;
65759;SDS011;52496;51.082;5.066;2022-07-23T04:06:33;13.43;;;8.40;;
65759;SDS011;52496;51.082;5.066;2022-07-23T04:09:04;12.20;;;7.82;;
65759;SDS011;52496;51.082;5.066;2022-07-23T04:11:34;13.48;;;7.72;;
65759;SDS011;52496;51.082;5.066;2022-07-23T04:14:05;13.30;;;7.72;;
65759;SDS011;52496;51.082;5.066;2022-07-23T04:16:35;13.18;;;6.53;;
65759;SDS011;52496;51.082;5.066;2022-07-23T04:19:06;11.43;;;6.43;;
65759;SDS011;52496;51.082;5.066;2022-07-23T04:21:36;11.05;;;7.20;;
65759;SDS011;52496;51.082;5.066;2022-07-23T04:24:07;11.80;;;6.90;;
65759;SDS011;52496;51.082;5.066;2022-07-23T04:26:37;11.32;;;6.75;;
65759;SDS011;52496;51.082;5.066;2022-07-23T04:29:08;12.30;;;6.90;;
65759;SDS011;52496;51.082;5.066;2022-07-23T04:31:39;15.88;;;7.55;;
65759;SDS011;52496;51.082;5.066;2022-07-23T04:34:09;13.15;;;7.60;;
65759;SDS011;52496;51.082;5.066;2022-07-23T04:36:40;11.85;;;7.18;;
65759;SDS011;52496;51.082;5.066;2022-07-23T04:39:10;12.95;;;7.60;;
65759;SDS011;52496;51.082;5.066;2022-07-23T04:41:40;11.23;;;6.90;;
65759;SDS011;52496;51.082;5.066;2022-07-23T04:44:11;16.40;;;7.25;;
65759;SDS011;52496;51.082;5.066;2022-07-23T04:46:41;13.75;;;8.00;;
65759;SDS011;52496;51.082;5.066;2022-07-23T04:49:12;11.93;;;7.28;;
65759;SDS011;52496;51.082;5.066;2022-07-23T04:51:42;17.20;;;7.28;;
65759;SDS011;52496;51.082;5.066;2022-07-23T04:54:13;10.55;;;7.25;;
65759;SDS011;52496;51.082;5.066;2022-07-23T04:56:43;12.80;;;8.00;;
65759;SDS011;52496;51.082;5.066;2022-07-23T04:59:14;13.00;;;6.95;;
65759;SDS011;52496;51.082;5.066;2022-07-23T05:01:44;13.25;;;7.47;;
65759;SDS011;52496;51.082;5.066;2022-07-23T05:04:15;12.70;;;7.18;;
65759;SDS011;52496;51.082;5.066;2022-07-23T05:06:46;15.45;;;7.70;;
65759;SDS011;52496;51.082;5.066;2022-07-23T05:09:16;13.23;;;7.70;;
65759;SDS011;52496;51.082;5.066;2022-07-23T05:11:47;12.93;;;8.18;;
65759;SDS011;52496;51.082;5.066;2022-07-23T05:14:17;14.02;;;8.90;;
65759;SDS011;52496;51.082;5.066;2022-07-23T05:16:48;12.65;;;8.30;;
65759;SDS011;52496;51.082;5.066;2022-07-23T05:19:18;12.82;;;8.05;;
65759;SDS011;52496;51.082;5.066;2022-07-23T05:21:49;13.45;;;8.25;;
65759;SDS011;52496;51.082;5.066;2022-07-23T05:24:20;17.30;;;8.65;;
65759;SDS011;52496;51.082;5.066;2022-07-23T05:26:50;14.00;;;8.50;;
65759;SDS011;52496;51.082;5.066;2022-07-23T05:29:21;14.15;;;8.75;;
65759;SDS011;52496;51.082;5.066;2022-07-23T05:31:51;14.82;;;9.63;;
65759;SDS011;52496;51.082;5.066;2022-07-23T05:34:22;17.05;;;9.27;;
65759;SDS011;52496;51.082;5.066;2022-07-23T05:36:52;13.98;;;8.80;;
65759;SDS011;52496;51.082;5.066;2022-07-23T05:39:23;16.02;;;9.73;;
65759;SDS011;52496;51.082;5.066;2022-07-23T05:41:53;13.93;;;9.02;;
65759;SDS011;52496;51.082;5.066;2022-07-23T05:44:24;13.05;;;9.43;;
65759;SDS011;52496;51.082;5.066;2022-07-23T05:46:54;15.70;;;10.23;;
65759;SDS011;52496;51.082;5.066;2022-07-23T05:49:25;15.32;;;9.82;;
65759;SDS011;52496;51.082;5.066;2022-07-23T05:51:55;14.07;;;8.80;;
65759;SDS011;52496;51.082;5.066;2022-07-23T05:54:26;11.57;;;7.90;;
65759;SDS011;52496;51.082;5.066;2022-07-23T05:56:56;15.63;;;9.13;;
65759;SDS011;52496;51.082;5.066;2022-07-23T05:59:27;14.98;;;9.63;;
65759;SDS011;52496;51.082;5.066;2022-07-23T06:01:57;14.95;;;9.80;;
65759;SDS011;52496;51.082;5.066;2022-07-23T06:04:28;18.60;;;9.77;;
65759;SDS011;52496;51.082;5.066;2022-07-23T06:06:58;14.48;;;9.35;;
65759;SDS011;52496;51.082;5.066;2022-07-23T06:09:28;13.30;;;8.38;;
65759;SDS011;52496;51.082;5.066;2022-07-23T06:11:59;16.73;;;8.77;;
65759;SDS011;52496;51.082;5.066;2022-07-23T06:14:29;13.65;;;9.80;;
65759;SDS011;52496;51.082;5.066;2022-07-23T06:17:00;13.05;;;8.80;;
65759;SDS011;52496;51.082;5.066;2022-07-23T06:19:30;12.55;;;8.55;;
65759;SDS011;52496;51.082;5.066;2022-07-23T06:22:01;14.15;;;9.48;;
65759;SDS011;52496;51.082;5.066;2022-07-23T06:24:31;13.48;;;9.00;;
65759;SDS011;52496;51.082;5.066;2022-07-23T06:27:01;14.43;;;9.90;;
65759;SDS011;52496;51.082;5.066;2022-07-23T06:29:32;12.02;;;8.50;;
65759;SDS011;52496;51.082;5.066;2022-07-23T06:32:02;10.45;;;7.75;;
65759;SDS011;52496;51.082;5.066;2022-07-23T06:34:33;12.85;;;8.43;;
65759;SDS011;52496;51.082;5.066;2022-07-23T06:37:04;13.50;;;8.05;;
65759;SDS011;52496;51.082;5.066;2022-07-23T06:39:35;12.73;;;7.57;;
65759;SDS011;52496;51.082;5.066;2022-07-23T06:42:05;12.98;;;7.43;;
65759;SDS011;52496;51.082;5.066;2022-07-23T06:44:36;11.75;;;6.80;;
65759;SDS011;52496;51.082;5.066;2022-07-23T06:47:06;11.30;;;6.82;;
65759;SDS011;52496;51.082;5.066;2022-07-23T06:49:37;14.10;;;7.05;;
65759;SDS011;52496;51.082;5.066;2022-07-23T06:52:08;9.65;;;6.82;;
65759;SDS011;52496;51.082;5.066;2022-07-23T06:54:40;10.98;;;6.85;;
65759;SDS011;52496;51.082;5.066;2022-07-23T06:57:10;10.57;;;6.40;;
65759;SDS011;52496;51.082;5.066;2022-07-23T06:59:40;9.43;;;7.10;;
65759;SDS011;52496;51.082;5.066;2022-07-23T07:02:11;12.70;;;7.22;;
65759;SDS011;52496;51.082;5.066;2022-07-23T07:04:41;9.65;;;6.15;;
65759;SDS011;52496;51.082;5.066;2022-07-23T07:07:12;9.63;;;6.32;;
65759;SDS011;52496;51.082;5.066;2022-07-23T07:09:43;12.10;;;6.40;;
65759;SDS011;52496;51.082;5.066;2022-07-23T07:12:14;13.50;;;6.15;;
65759;SDS011;52496;51.082;5.066;2022-07-23T07:14:44;9.50;;;5.05;;
65759;SDS011;52496;51.082;5.066;2022-07-23T07:17:15;9.27;;;5.43;;
65759;SDS011;52496;51.082;5.066;2022-07-23T07:19:46;9.07;;;5.38;;
65759;SDS011;52496;51.082;5.066;2022-07-23T07:22:16;8.93;;;4.45;;
65759;SDS011;52496;51.082;5.066;2022-07-23T07:24:46;8.32;;;4.97;;
65759;SDS011;52496;51.082;5.066;2022-07-23T07:27:17;8.13;;;5.07;;
65759;SDS011;52496;51.082;5.066;2022-07-23T07:29:48;8.23;;;5.40;;
65759;SDS011;52496;51.082;5.066;2022-07-23T07:32:18;9.68;;;5.90;;
65759;SDS011;52496;51.082;5.066;2022-07-23T07:34:49;11.30;;;5.47;;
65759;SDS011;52496;51.082;5.066;2022-07-23T07:37:19;12.18;;;6.15;;
65759;SDS011;52496;51.082;5.066;2022-07-23T07:39:50;10.25;;;5.35;;
65759;SDS011;52496;51.082;5.066;2022-07-23T07:42:20;9.77;;;4.88;;
65759;SDS011;52496;51.082;5.066;2022-07-23T07:44:51;10.15;;;5.30;;
65759;SDS011;52496;51.082;5.066;2022-07-23T07:47:21;9.55;;;4.70;;
65759;SDS011;52496;51.082;5.066;2022-07-23T07:49:52;6.90;;;4.75;;
65759;SDS011;52496;51.082;5.066;2022-07-23T07:52:22;8.18;;;4.43;;
65759;SDS011;52496;51.082;5.066;2022-07-23T07:54:53;8.88;;;5.10;;
65759;SDS011;52496;51.082;5.066;2022-07-23T07:57:23;7.63;;;4.43;;
65759;SDS011;52496;51.082;5.066;2022-07-23T07:59:54;8.75;;;4.55;;
65759;SDS011;52496;51.082;5.066;2022-07-23T08:02:25;9.48;;;4.43;;
65759;SDS011;52496;51.082;5.066;2022-07-23T08:04:55;8.90;;;4.95;;
65759;SDS011;52496;51.082;5.066;2022-07-23T08:07:27;9.55;;;5.20;;
65759;SDS011;52496;51.082;5.066;2022-07-23T08:09:57;8.48;;;4.15;;
65759;SDS011;52496;51.082;5.066;2022-07-23T08:12:28;10.38;;;5.40;;
65759;SDS011;52496;51.082;5.066;2022-07-23T08:15:07;9.15;;;5.03;;
65759;SDS011;52496;51.082;5.066;2022-07-23T08:17:38;7.97;;;5.30;;
65759;SDS011;52496;51.082;5.066;2022-07-23T08:20:10;10.07;;;4.70;;
65759;SDS011;52496;51.082;5.066;2022-07-23T08:25:30;7.85;;;5.10;;
65759;SDS011;52496;51.082;5.066;2022-07-23T08:28:03;8.90;;;4.97;;
65759;SDS011;52496;51.082;5.066;2022-07-23T08:30:35;8.13;;;5.03;;
65759;SDS011;52496;51.082;5.066;2022-07-23T08:33:07;9.82;;;5.88;;
65759;SDS011;52496;51.082;5.066;2022-07-23T08:35:47;9.55;;;5.35;;
65759;SDS011;52496;51.082;5.066;2022-07-23T08:38:20;8.50;;;5.30;;
65759;SDS011;52496;51.082;5.066;2022-07-23T08:40:53;8.68;;;5.55;;
65759;SDS011;52496;51.082;5.066;2022-07-23T08:43:31;8.43;;;4.85;;
65759;SDS011;52496;51.082;5.066;2022-07-23T08:46:03;9.40;;;5.88;;
65759;SDS011;52496;51.082;5.066;2022-07-23T08:48:35;8.02;;;5.57;;
65759;SDS011;52496;51.082;5.066;2022-07-23T08:51:06;9.60;;;5.40;;
65759;SDS011;52496;51.082;5.066;2022-07-23T08:53:37;10.57;;;5.90;;
65759;SDS011;52496;51.082;5.066;2022-07-23T08:56:08;12.02;;;5.60;;
65759;SDS011;52496;51.082;5.066;2022-07-23T08:58:39;9.23;;;5.38;;
65759;SDS011;52496;51.082;5.066;2022-07-23T09:01:09;9.15;;;5.05;;
65759;SDS011;52496;51.082;5.066;2022-07-23T09:03:40;6.68;;;4.38;;
65759;SDS011;52496;51.082;5.066;2022-07-23T09:06:10;12.30;;;5.10;;
65759;SDS011;52496;51.082;5.066;2022-07-23T09:08:42;8.30;;;5.18;;
65759;SDS011;52496;51.082;5.066;2022-07-23T09:11:17;11.18;;;5.00;;
65759;SDS011;52496;51.082;5.066;2022-07-23T09:16:28;8.30;;;5.13;;
65759;SDS011;52496;51.082;5.066;2022-07-23T09:21:32;6.97;;;4.40;;
65759;SDS011;52496;51.082;5.066;2022-07-23T09:24:10;9.35;;;4.43;;
65759;SDS011;52496;51.082;5.066;2022-07-23T09:26:46;6.72;;;3.50;;
65759;SDS011;52496;51.082;5.066;2022-07-23T09:29:19;6.78;;;4.00;;
65759;SDS011;52496;51.082;5.066;2022-07-23T09:31:53;8.68;;;4.05;;
65759;SDS011;52496;51.082;5.066;2022-07-23T09:34:36;7.05;;;4.55;;
65759;SDS011;52496;51.082;5.066;2022-07-23T09:37:13;6.88;;;3.95;;
65759;SDS011;52496;51.082;5.066;2022-07-23T09:39:45;6.55;;;3.95;;
65759;SDS011;52496;51.082;5.066;2022-07-23T09:42:19;6.30;;;3.67;;
65759;SDS011;52496;51.082;5.066;2022-07-23T09:44:52;6.32;;;3.90;;
65759;SDS011;52496;51.082;5.066;2022-07-23T09:47:25;9.38;;;5.03;;
65759;SDS011;52496;51.082;5.066;2022-07-23T09:52:36;6.13;;;3.47;;
65759;SDS011;52496;51.082;5.066;2022-07-23T09:55:14;7.45;;;3.65;;
65759;SDS011;52496;51.082;5.066;2022-07-23T09:57:46;7.07;;;4.10;;
65759;SDS011;52496;51.082;5.066;2022-07-23T10:00:21;6.57;;;3.20;;
65759;SDS011;52496;51.082;5.066;2022-07-23T10:02:53;5.80;;;3.70;;
65759;SDS011;52496;51.082;5.066;2022-07-23T10:05:25;6.07;;;3.80;;
65759;SDS011;52496;51.082;5.066;2022-07-23T10:07:56;6.57;;;3.58;;
65759;SDS011;52496;51.082;5.066;2022-07-23T10:10:29;5.68;;;3.70;;
65759;SDS011;52496;51.082;5.066;2022-07-23T10:13:01;7.10;;;3.65;;
65759;SDS011;52496;51.082;5.066;2022-07-23T10:15:41;6.43;;;3.20;;
65759;SDS011;52496;51.082;5.066;2022-07-23T10:18:11;5.95;;;3.42;;
65759;SDS011;52496;51.082;5.066;2022-07-23T10:20:42;4.82;;;2.92;;
65759;SDS011;52496;51.082;5.066;2022-07-23T10:23:19;6.75;;;3.20;;
65759;SDS011;52496;51.082;5.066;2022-07-23T10:29:20;5.63;;;2.88;;
65759;SDS011;52496;51.082;5.066;2022-07-23T10:32:04;5.43;;;2.97;;
65759;SDS011;52496;51.082;5.066;2022-07-23T10:38:00;6.68;;;4.07;;
65759;SDS011;52496;51.082;5.066;2022-07-23T10:40:37;6.68;;;3.70;;
65759;SDS011;52496;51.082;5.066;2022-07-23T10:43:22;4.70;;;3.15;;
65759;SDS011;52496;51.082;5.066;2022-07-23T10:45:53;5.90;;;3.13;;
65759;SDS011;52496;51.082;5.066;2022-07-23T10:48:25;6.57;;;3.30;;
65759;SDS011;52496;51.082;5.066;2022-07-23T10:51:16;5.53;;;3.08;;
65759;SDS011;52496;51.082;5.066;2022-07-23T10:53:59;5.40;;;3.00;;
65759;SDS011;52496;51.082;5.066;2022-07-23T10:59:26;6.25;;;3.00;;
65759;SDS011;52496;51.082;5.066;2022-07-23T11:02:20;5.53;;;2.92;;
65759;SDS011;52496;51.082;5.066;2022-07-23T11:04:53;7.32;;;2.53;;
65759;SDS011;52496;51.082;5.066;2022-07-23T11:07:24;5.65;;;2.85;;
65759;SDS011;52496;51.082;5.066;2022-07-23T11:09:54;5.85;;;3.10;;
65759;SDS011;52496;51.082;5.066;2022-07-23T11:17:39;4.75;;;2.33;;
65759;SDS011;52496;51.082;5.066;2022-07-23T11:20:32;5.85;;;3.55;;
65759;SDS011;52496;51.082;5.066;2022-07-23T11:23:02;5.75;;;3.22;;
65759;SDS011;52496;51.082;5.066;2022-07-23T11:25:35;4.82;;;2.30;;
65759;SDS011;52496;51.082;5.066;2022-07-23T11:30:41;4.60;;;2.35;;
65759;SDS011;52496;51.082;5.066;2022-07-23T11:35:45;3.67;;;2.20;;
65759;SDS011;52496;51.082;5.066;2022-07-23T11:38:19;4.00;;;2.53;;
65759;SDS011;52496;51.082;5.066;2022-07-23T11:40:52;3.15;;;2.00;;
65759;SDS011;52496;51.082;5.066;2022-07-23T11:43:24;3.78;;;1.80;;
65759;SDS011;52496;51.082;5.066;2022-07-23T11:45:59;3.28;;;2.17;;
65759;SDS011;52496;51.082;5.066;2022-07-23T11:48:30;3.80;;;1.98;;
65759;SDS011;52496;51.082;5.066;2022-07-23T11:51:01;3.58;;;2.05;;
65759;SDS011;52496;51.082;5.066;2022-07-23T11:53:32;4.07;;;2.45;;
65759;SDS011;52496;51.082;5.066;2022-07-23T11:56:07;3.78;;;2.10;;
65759;SDS011;52496;51.082;5.066;2022-07-23T11:58:40;3.88;;;2.20;;
65759;SDS011;52496;51.082;5.066;2022-07-23T12:01:25;4.57;;;2.33;;
65759;SDS011;52496;51.082;5.066;2022-07-23T12:03:56;3.78;;;2.25;;
65759;SDS011;52496;51.082;5.066;2022-07-23T12:06:26;3.70;;;2.15;;
65759;SDS011;52496;51.082;5.066;2022-07-23T12:08:56;4.43;;;2.70;;
65759;SDS011;52496;51.082;5.066;2022-07-23T12:11:27;4.28;;;2.13;;
65759;SDS011;52496;51.082;5.066;2022-07-23T12:13:58;4.18;;;2.40;;
65759;SDS011;52496;51.082;5.066;2022-07-23T12:16:29;3.45;;;2.10;;
65759;SDS011;52496;51.082;5.066;2022-07-23T12:18:59;3.97;;;2.28;;
65759;SDS011;52496;51.082;5.066;2022-07-23T12:21:30;5.10;;;2.45;;
65759;SDS011;52496;51.082;5.066;2022-07-23T12:24:06;5.07;;;2.22;;
65759;SDS011;52496;51.082;5.066;2022-07-23T12:26:37;4.28;;;2.33;;
65759;SDS011;52496;51.082;5.066;2022-07-23T12:29:08;5.57;;;3.08;;
65759;SDS011;52496;51.082;5.066;2022-07-23T12:31:38;4.88;;;2.45;;
65759;SDS011;52496;51.082;5.066;2022-07-23T12:34:15;5.38;;;2.50;;
65759;SDS011;52496;51.082;5.066;2022-07-23T12:36:45;4.55;;;2.78;;
65759;SDS011;52496;51.082;5.066;2022-07-23T12:39:30;6.30;;;3.17;;
65759;SDS011;52496;51.082;5.066;2022-07-23T12:42:01;4.13;;;2.70;;
65759;SDS011;52496;51.082;5.066;2022-07-23T12:44:31;5.43;;;2.38;;
65759;SDS011;52496;51.082;5.066;2022-07-23T12:47:04;4.68;;;2.47;;
65759;SDS011;52496;51.082;5.066;2022-07-23T12:49:35;4.63;;;2.60;;
65759;SDS011;52496;51.082;5.066;2022-07-23T12:52:15;3.50;;;2.20;;
65759;SDS011;52496;51.082;5.066;2022-07-23T12:54:47;5.10;;;3.10;;
65759;SDS011;52496;51.082;5.066;2022-07-23T12:57:18;5.15;;;2.80;;
65759;SDS011;52496;51.082;5.066;2022-07-23T12:59:48;8.00;;;2.78;;
65759;SDS011;52496;51.082;5.066;2022-07-23T13:02:19;3.92;;;2.33;;
65759;SDS011;52496;51.082;5.066;2022-07-23T13:04:49;5.18;;;2.40;;
65759;SDS011;52496;51.082;5.066;2022-07-23T13:07:20;4.65;;;2.47;;
65759;SDS011;52496;51.082;5.066;2022-07-23T13:09:52;5.45;;;2.60;;
65759;SDS011;52496;51.082;5.066;2022-07-23T13:12:23;5.75;;;2.70;;
65759;SDS011;52496;51.082;5.066;2022-07-23T13:14:53;5.78;;;3.25;;
65759;SDS011;52496;51.082;5.066;2022-07-23T13:17:24;4.63;;;2.88;;
65759;SDS011;52496;51.082;5.066;2022-07-23T13:19:55;4.03;;;2.58;;
65759;SDS011;52496;51.082;5.066;2022-07-23T13:22:25;6.40;;;2.67;;
65759;SDS011;52496;51.082;5.066;2022-07-23T13:24:56;4.80;;;2.67;;
65759;SDS011;52496;51.082;5.066;2022-07-23T13:27:26;4.63;;;2.38;;
65759;SDS011;52496;51.082;5.066;2022-07-23T13:29:57;6.05;;;2.65;;
65759;SDS011;52496;51.082;5.066;2022-07-23T13:32:28;4.55;;;2.53;;
65759;SDS011;52496;51.082;5.066;2022-07-23T13:34:58;4.75;;;2.83;;
65759;SDS011;52496;51.082;5.066;2022-07-23T13:37:29;4.85;;;2.60;;
65759;SDS011;52496;51.082;5.066;2022-07-23T13:39:59;4.75;;;2.45;;
65759;SDS011;52496;51.082;5.066;2022-07-23T13:42:30;4.85;;;2.60;;
65759;SDS011;52496;51.082;5.066;2022-07-23T13:45:00;6.53;;;2.90;;
65759;SDS011;52496;51.082;5.066;2022-07-23T13:47:31;7.47;;;2.90;;
65759;SDS011;52496;51.082;5.066;2022-07-23T13:50:02;4.70;;;2.60;;
65759;SDS011;52496;51.082;5.066;2022-07-23T13:52:34;5.70;;;2.92;;
65759;SDS011;52496;51.082;5.066;2022-07-23T13:55:05;7.13;;;2.80;;
65759;SDS011;52496;51.082;5.066;2022-07-23T13:57:36;6.45;;;2.88;;
65759;SDS011;52496;51.082;5.066;2022-07-23T14:00:08;5.47;;;2.88;;
65759;SDS011;52496;51.082;5.066;2022-07-23T14:02:41;5.07;;;2.78;;
65759;SDS011;52496;51.082;5.066;2022-07-23T14:05:11;4.25;;;2.60;;
65759;SDS011;52496;51.082;5.066;2022-07-23T14:07:42;3.67;;;2.40;;
65759;SDS011;52496;51.082;5.066;2022-07-23T14:10:14;4.50;;;2.70;;
65759;SDS011;52496;51.082;5.066;2022-07-23T14:12:45;4.40;;;2.63;;
65759;SDS011;52496;51.082;5.066;2022-07-23T14:15:17;3.80;;;2.30;;
65759;SDS011;52496;51.082;5.066;2022-07-23T14:17:47;3.83;;;2.50;;
65759;SDS011;52496;51.082;5.066;2022-07-23T14:20:18;7.20;;;2.70;;
65759;SDS011;52496;51.082;5.066;2022-07-23T14:22:49;5.07;;;2.50;;
65759;SDS011;52496;51.082;5.066;2022-07-23T14:25:19;5.32;;;2.60;;
65759;SDS011;52496;51.082;5.066;2022-07-23T14:27:50;6.82;;;2.70;;
65759;SDS011;52496;51.082;5.066;2022-07-23T14:30:20;5.13;;;2.90;;
65759;SDS011;52496;51.082;5.066;2022-07-23T14:32:53;4.20;;;2.60;;
65759;SDS011;52496;51.082;5.066;2022-07-23T14:35:23;4.75;;;2.70;;
65759;SDS011;52496;51.082;5.066;2022-07-23T14:37:54;4.68;;;2.70;;
65759;SDS011;52496;51.082;5.066;2022-07-23T14:40:26;5.25;;;2.60;;
65759;SDS011;52496;51.082;5.066;2022-07-23T14:42:56;4.93;;;2.83;;
65759;SDS011;52496;51.082;5.066;2022-07-23T14:45:27;4.80;;;2.92;;
65759;SDS011;52496;51.082;5.066;2022-07-23T14:48:00;4.57;;;2.72;;
65759;SDS011;52496;51.082;5.066;2022-07-23T14:50:32;5.35;;;2.90;;
65759;SDS011;52496;51.082;5.066;2022-07-23T14:53:02;6.95;;;3.00;;
65759;SDS011;52496;51.082;5.066;2022-07-23T14:55:33;5.80;;;2.70;;
65759;SDS011;52496;51.082;5.066;2022-07-23T14:58:04;4.18;;;2.75;;
65759;SDS011;52496;51.082;5.066;2022-07-23T15:00:35;4.63;;;2.63;;
65759;SDS011;52496;51.082;5.066;2022-07-23T15:03:05;6.20;;;2.90;;
65759;SDS011;52496;51.082;5.066;2022-07-23T15:05:36;5.10;;;2.88;;
65759;SDS011;52496;51.082;5.066;2022-07-23T15:08:06;4.50;;;2.50;;
65759;SDS011;52496;51.082;5.066;2022-07-23T15:10:37;7.75;;;2.92;;
65759;SDS011;52496;51.082;5.066;2022-07-23T15:13:08;6.60;;;2.75;;
65759;SDS011;52496;51.082;5.066;2022-07-23T15:15:39;4.10;;;2.63;;
65759;SDS011;52496;51.082;5.066;2022-07-23T15:18:10;5.78;;;2.78;;
65759;SDS011;52496;51.082;5.066;2022-07-23T15:20:41;6.30;;;2.58;;
65759;SDS011;52496;51.082;5.066;2022-07-23T15:23:12;6.30;;;2.92;;
65759;SDS011;52496;51.082;5.066;2022-07-23T15:25:43;6.13;;;2.90;;
65759;SDS011;52496;51.082;5.066;2022-07-23T15:28:15;4.53;;;2.70;;
65759;SDS011;52496;51.082;5.066;2022-07-23T15:30:45;7.07;;;2.80;;
65759;SDS011;52496;51.082;5.066;2022-07-23T15:33:16;6.18;;;2.75;;
65759;SDS011;52496;51.082;5.066;2022-07-23T15:35:47;5.13;;;3.08;;